METAR AND TAF INFORMATION
METAR FOR ZMUB
ZMUB 130800Z 15009MPS 9999 FEW030CB SCT033 SCT100 21/M08 Q0989 NOSIG RMK QFE637.3 13 MOP
ZMUB 130700Z 13007MPS 100V160 9999 FEW030CB SCT033 22/M09 Q0990 NOSIG RMK QFE638.1 12 MOP
ZMUB 130600Z 15009MPS 120V190 9999 FEW030CB SCT033 20/M08 Q0992 NOSIG RMK QFE639.2 14 MOP

TAF COR ZMUB 130501Z 1306/1412 16010MPS 9999 FEW030CB BKN033 BKN100 TX19/1307Z TNM09/1323Z
TEMPO 1306/1312 VRB12G17MPS 6000 SHRA SCT027CB BKN030 BKN080
BECMG 1309/1312 33011G16MPS 4000 SNRA BLSN FEW020 BKN027 BKN080
TEMPO 1312/1402 2000
BECMG 1314/1316 33009MPS
BECMG 1400/1402 9999 NSW SCT033 SCT100
BECMG 1408/1410 33007MPS

 AIRPORT MAP

 RUNWAY INFORMATION
Runway 14 Runway length 10170 ft Runway width 197 ft
Runway elevation 4147 ft Runway displaced threshold 0 ft Runway heading 136
Runway 32 Runway length 10170 ft Runway width 197 ft
Runway elevation 4363 ft Runway displaced threshold 0 ft Runway heading 316
Runway 15 Runway length 6560 ft Runway width 131 ft
Runway elevation 4123 ft Runway displaced threshold 0 ft Runway heading 145
Runway 33 Runway length 6560 ft Runway width 131 ft
Runway elevation 4267 ft Runway displaced threshold 0 ft Runway heading 325

 AIRPORT FREQUENCIES
Type ACC Name ULAANBAATA Frequency 126 MHZ
Type APP Name ULAANBAATA Frequency 120 MHZ
Type ATIS Name ATIS Frequency 126 MHZ

 AIRPORT NEAR NAVIGATION AIDS
Type NDB Name Ulaanbaatar Frequency 315 KHZ
Type VOR-DME Name Ulaanbaatar Frequency 116000 KHZ

-